Time;durP1;ratioP1;P1;durP2;ratioP2;P2;SDS_P1;SDS_P2;PMS_P1;PMS_P2;Temp;Humidity;BMP_temperature;BMP_pressure;BME280_temperature;BME280_humidity;BME280_pressure;Samples;Min_cycle;Max_cycle;Signal;HPM_P1;HPM_P2
2023/01/23 00:01:04;;;;;;;34.60;15.20;;;;;;;0.67;100.00;99780.09;106458;1281;138729;-73
2023/01/23 00:03:32;;;;;;;32.10;16.20;;;;;;;0.67;99.96;99782.98;107635;1281;138661;-73
2023/01/23 00:06:02;;;;;;;29.60;14.90;;;;;;;0.65;99.99;99786.14;106927;1268;139726;-73
2023/01/23 00:08:30;;;;;;;28.30;14.50;;;;;;;0.65;99.98;99787.83;107445;1280;22463;-74
2023/01/23 00:10:57;;;;;;;38.80;17.40;;;;;;;0.64;100.00;99788.80;107037;1279;139334;-74
2023/01/23 00:13:24;;;;;;;44.80;18.40;;;;;;;0.65;100.00;99792.98;106764;1276;25446;-73
2023/01/23 00:15:52;;;;;;;38.70;18.60;;;;;;;0.65;100.00;99803.32;106573;1263;138345;-73
2023/01/23 00:18:18;;;;;;;37.60;18.30;;;;;;;0.66;100.00;99808.61;106515;1281;139879;-73
2023/01/23 00:20:45;;;;;;;33.90;17.00;;;;;;;0.66;100.00;99814.09;106650;1273;24205;-74
2023/01/23 00:23:12;;;;;;;34.20;17.10;;;;;;;0.66;100.00;99812.50;106454;1281;138510;-73
2023/01/23 00:25:39;;;;;;;33.60;17.80;;;;;;;0.67;100.00;99811.54;106643;1258;23532;-73
2023/01/23 00:28:06;;;;;;;34.60;16.20;;;;;;;0.68;100.00;99811.50;106588;1280;138439;-73
2023/01/23 00:30:33;;;;;;;37.50;17.30;;;;;;;0.68;100.00;99817.38;106567;1281;138505;-73
2023/01/23 00:33:00;;;;;;;33.20;16.00;;;;;;;0.69;100.00;99823.88;106527;1281;141575;-74
2023/01/23 00:35:27;;;;;;;32.60;15.80;;;;;;;0.69;100.00;99829.41;106645;1261;138645;-74
2023/01/23 00:37:54;;;;;;;36.20;16.40;;;;;;;0.69;100.00;99834.75;106645;1281;25273;-73
2023/01/23 00:40:21;;;;;;;37.30;16.20;;;;;;;0.69;100.00;99838.49;106634;1280;139747;-73
2023/01/23 00:42:48;;;;;;;34.20;17.30;;;;;;;0.69;100.00;99837.40;106584;1280;138603;-73
2023/01/23 00:45:16;;;;;;;33.20;16.40;;;;;;;0.69;100.00;99838.33;106628;1274;139413;-73
2023/01/23 00:47:43;;;;;;;33.90;16.70;;;;;;;0.68;100.00;99834.64;106677;1264;139046;-73
2023/01/23 00:50:10;;;;;;;31.70;15.80;;;;;;;0.67;99.95;99837.77;106776;1276;22580;-73
2023/01/23 00:52:37;;;;;;;34.40;16.90;;;;;;;0.67;100.00;99841.15;106694;1281;140394;-73
2023/01/23 00:55:05;;;;;;;35.90;16.40;;;;;;;0.68;100.00;99840.59;106558;1281;138312;-73
2023/01/23 00:57:32;;;;;;;38.40;17.30;;;;;;;0.68;100.00;99847.03;106556;1262;138881;-73
2023/01/23 00:59:59;;;;;;;36.10;17.00;;;;;;;0.67;100.00;99844.30;106542;1281;139229;-73
2023/01/23 01:02:26;;;;;;;35.50;17.30;;;;;;;0.67;100.00;99846.04;106656;1281;22962;-73
2023/01/23 01:04:53;;;;;;;36.20;16.50;;;;;;;0.67;100.00;99847.65;106426;1282;139109;-73
2023/01/23 01:07:22;;;;;;;37.60;17.20;;;;;;;0.66;100.00;99847.88;106621;1262;22533;-73
2023/01/23 01:09:49;;;;;;;36.50;16.60;;;;;;;0.66;100.00;99843.05;106898;1275;139287;-73
2023/01/23 01:12:18;;;;;;;36.30;16.00;;;;;;;0.67;100.00;99844.59;106597;1281;139059;-73
2023/01/23 01:14:45;;;;;;;37.20;16.60;;;;;;;0.67;100.00;99850.13;106704;1281;22689;-73
2023/01/23 01:17:15;;;;;;;35.80;16.20;;;;;;;0.67;100.00;99860.02;106380;1263;139317;-73
2023/01/23 01:19:42;;;;;;;36.30;15.80;;;;;;;0.67;100.00;99861.79;106617;1282;22553;-73
2023/01/23 01:22:09;;;;;;;36.40;15.80;;;;;;;0.67;100.00;99854.60;106550;1274;138934;-73
2023/01/23 01:24:36;;;;;;;33.10;15.30;;;;;;;0.68;100.00;99855.10;106555;1273;138605;-73
2023/01/23 01:27:03;;;;;;;31.70;16.20;;;;;;;0.65;100.00;99851.73;106622;1262;139235;-73
2023/01/23 01:29:31;;;;;;;34.70;15.40;;;;;;;0.65;100.00;99856.77;106546;1281;138691;-73
2023/01/23 01:31:58;;;;;;;34.80;16.40;;;;;;;0.65;100.00;99853.55;106698;1281;25269;-73
2023/01/23 01:34:25;;;;;;;33.40;16.70;;;;;;;0.65;100.00;99852.01;106584;1281;138774;-73
2023/01/23 01:36:52;;;;;;;33.10;15.30;;;;;;;0.65;100.00;99861.05;106576;1257;138498;-73
2023/01/23 01:39:19;;;;;;;32.00;16.50;;;;;;;0.65;100.00;99863.60;106643;1280;139202;-73
2023/01/23 01:41:46;;;;;;;32.80;15.00;;;;;;;0.65;100.00;99862.70;107494;1278;138531;-74
2023/01/23 01:44:21;;;;;;;33.50;15.70;;;;;;;0.65;100.00;99863.77;106686;1281;22656;-73
2023/01/23 01:46:49;;;;;;;32.80;15.20;;;;;;;0.64;99.99;99869.16;106666;1257;139273;-74
2023/01/23 01:49:22;;;;;;;34.70;14.80;;;;;;;0.63;100.00;99874.11;107628;1281;22546;-73
2023/01/23 01:52:01;;;;;;;29.90;13.90;;;;;;;0.63;100.00;99869.98;106488;1281;138357;-73
2023/01/23 01:54:33;;;;;;;34.20;15.00;;;;;;;0.64;100.00;99860.98;107164;1281;139880;-73
2023/01/23 01:57:03;;;;;;;28.80;14.10;;;;;;;0.64;100.00;99860.27;107776;1258;138701;-73
2023/01/23 01:59:39;;;;;;;29.40;14.10;;;;;;;0.64;100.00;99854.39;106497;1281;138979;-73
2023/01/23 02:02:11;;;;;;;34.70;15.00;;;;;;;0.64;100.00;99853.08;106713;1281;23143;-73
2023/01/23 02:04:44;;;;;;;30.90;14.10;;;;;;;0.63;99.99;99852.27;106818;1278;139024;-73
2023/01/23 02:07:19;;;;;;;31.20;15.20;;;;;;;0.62;100.00;99858.81;107676;1257;139099;-72
2023/01/23 02:09:47;;;;;;;31.30;14.50;;;;;;;0.60;99.97;99862.41;107881;1273;138531;-73
2023/01/23 02:12:14;;;;;;;29.40;13.60;;;;;;;0.59;100.00;99863.99;106584;1281;138354;-73
2023/01/23 02:14:42;;;;;;;31.70;13.70;;;;;;;0.58;100.00;99865.30;106546;1276;22536;-73
2023/01/23 02:17:09;;;;;;;29.10;13.40;;;;;;;0.60;100.00;99868.55;106734;1266;138452;-73
2023/01/23 02:19:44;;;;;;;31.80;14.00;;;;;;;0.60;100.00;99867.96;107027;1263;22544;-73
2023/01/23 02:22:36;;;;;;;27.80;12.30;;;;;;;0.60;100.00;99868.86;107779;1281;138345;-73
2023/01/23 02:25:26;;;;;;;31.70;14.30;;;;;;;0.61;100.00;99873.45;106768;1280;139608;-73
2023/01/23 02:27:53;;;;;;;25.70;12.80;;;;;;;0.58;100.00;99873.87;106495;1267;138543;-73
2023/01/23 02:30:20;;;;;;;25.60;12.00;;;;;;;0.57;100.00;99876.09;106765;1273;140907;-73
2023/01/23 02:32:48;;;;;;;29.30;13.30;;;;;;;0.58;100.00;99877.65;106681;1275;24253;-73
2023/01/23 02:35:25;;;;;;;26.20;13.10;;;;;;;0.60;100.00;99875.32;107190;1275;139449;-72
2023/01/23 02:37:57;;;;;;;26.10;13.00;;;;;;;0.61;100.00;99874.26;106673;1257;139762;-73
2023/01/23 02:40:36;;;;;;;26.10;12.70;;;;;;;0.62;100.00;99874.76;107064;1276;138907;-73
2023/01/23 02:43:06;;;;;;;27.80;14.50;;;;;;;0.61;100.00;99870.26;106960;1274;139099;-73
2023/01/23 02:45:34;;;;;;;29.20;14.20;;;;;;;0.61;100.00;99868.75;106716;1273;139834;-73
2023/01/23 02:48:04;;;;;;;21.20;11.30;;;;;;;0.59;100.00;99867.57;106925;1257;139525;-73
2023/01/23 02:50:32;;;;;;;23.70;11.80;;;;;;;0.55;99.97;99876.28;106600;1281;22809;-72
2023/01/23 02:52:59;;;;;;;25.10;12.30;;;;;;;0.55;100.00;99877.38;108159;1273;138217;-73
2023/01/23 02:55:32;;;;;;;24.60;11.70;;;;;;;0.55;100.00;99873.56;108334;1264;138598;-72
2023/01/23 03:00:46;;;;;;;22.20;11.20;;;;;;;0.55;100.00;99882.91;106917;1276;138894;-73
2023/01/23 03:03:14;;;;;;;22.50;10.90;;;;;;;0.55;100.00;99886.10;106509;1281;139407;-72
2023/01/23 03:05:41;;;;;;;24.10;11.20;;;;;;;0.55;100.00;99890.61;107102;1274;139008;-76
2023/01/23 03:08:08;;;;;;;23.20;12.20;;;;;;;0.55;100.00;99893.80;107085;1273;23966;-73
2023/01/23 03:10:35;;;;;;;23.80;11.20;;;;;;;0.55;100.00;99893.96;106769;1278;139402;-72
2023/01/23 03:13:06;;;;;;;19.40;10.10;;;;;;;0.56;100.00;99896.25;106685;1281;138661;-73
2023/01/23 03:15:34;;;;;;;19.80;10.30;;;;;;;0.55;100.00;99899.16;107265;1276;139027;-72
2023/01/23 03:18:02;;;;;;;17.90;10.00;;;;;;;0.56;100.00;99897.66;106590;1281;138819;-72
2023/01/23 03:20:38;;;;;;;22.30;11.60;;;;;;;0.56;100.00;99894.61;106704;1263;22489;-72
2023/01/23 03:23:05;;;;;;;21.80;11.10;;;;;;;0.56;100.00;99896.91;107606;1281;138496;-72
2023/01/23 03:25:32;;;;;;;18.90;10.80;;;;;;;0.56;100.00;99893.52;106503;1281;139714;-72
2023/01/23 03:27:58;;;;;;;17.60;10.10;;;;;;;0.56;100.00;99897.45;106596;1281;138564;-72
2023/01/23 03:30:26;;;;;;;27.70;12.10;;;;;;;0.56;100.00;99900.50;106628;1262;139450;-72
2023/01/23 03:32:52;;;;;;;18.80;10.80;;;;;;;0.56;100.00;99900.17;106748;1281;25332;-72
2023/01/23 03:35:19;;;;;;;20.80;10.90;;;;;;;0.56;100.00;99904.63;106521;1281;138195;-72
2023/01/23 03:37:48;;;;;;;21.50;11.20;;;;;;;0.57;100.00;99905.41;106584;1280;138612;-72
2023/01/23 03:43:04;;;;;;;23.90;11.80;;;;;;;0.60;100.00;99906.45;106513;1267;138705;-73
2023/01/23 03:45:32;;;;;;;22.00;11.60;;;;;;;0.59;100.00;99911.67;107054;1277;138975;-72
2023/01/23 03:47:59;;;;;;;20.40;11.40;;;;;;;0.59;100.00;99913.46;106560;1283;138880;-73
2023/01/23 03:50:26;;;;;;;25.20;12.60;;;;;;;0.58;100.00;99915.52;106658;1265;25285;-73
2023/01/23 03:52:53;;;;;;;21.90;12.00;;;;;;;0.56;100.00;99917.44;106615;1275;139054;-73
2023/01/23 03:55:20;;;;;;;20.30;10.80;;;;;;;0.56;100.00;99911.70;106637;1281;139236;-72
2023/01/23 03:57:47;;;;;;;22.90;12.00;;;;;;;0.56;100.00;99918.04;106636;1282;138505;-72
2023/01/23 04:00:24;;;;;;;20.80;11.40;;;;;;;0.55;100.00;99924.32;106630;1262;138755;-72
2023/01/23 04:02:59;;;;;;;19.20;9.70;;;;;;;0.55;100.00;99925.46;106752;1261;22533;-72
2023/01/23 04:05:27;;;;;;;19.00;10.30;;;;;;;0.55;100.00;99932.92;106805;1281;22765;-72
2023/01/23 04:07:54;;;;;;;20.90;10.10;;;;;;;0.56;100.00;99931.96;106586;1281;138486;-72
2023/01/23 04:10:21;;;;;;;20.60;11.50;;;;;;;0.56;100.00;99937.69;106724;1281;138572;-73
2023/01/23 04:12:52;;;;;;;20.50;10.60;;;;;;;0.56;100.00;99933.34;106546;1264;139610;-72
2023/01/23 04:15:19;;;;;;;20.00;10.50;;;;;;;0.56;100.00;99934.61;106829;1273;139395;-73
2023/01/23 04:17:46;;;;;;;19.60;10.80;;;;;;;0.55;100.00;99936.29;106530;1281;139772;-73
2023/01/23 04:20:14;;;;;;;20.10;10.70;;;;;;;0.55;100.00;99937.96;106775;1281;22534;-72
2023/01/23 04:22:42;;;;;;;21.40;10.90;;;;;;;0.56;100.00;99939.84;106926;1260;138867;-73
2023/01/23 04:25:09;;;;;;;19.80;9.30;;;;;;;0.56;100.00;99940.71;106727;1275;138497;-73
2023/01/23 04:27:36;;;;;;;22.40;11.00;;;;;;;0.56;100.00;99942.33;106765;1281;139116;-73
2023/01/23 04:30:04;;;;;;;21.30;10.50;;;;;;;0.57;100.00;99942.77;106687;1281;138725;-73
2023/01/23 04:32:32;;;;;;;18.60;11.00;;;;;;;0.56;100.00;99942.10;106717;1260;22546;-73
2023/01/23 04:34:59;;;;;;;20.70;10.90;;;;;;;0.55;100.00;99945.06;106457;1281;247872;-73
2023/01/23 04:37:27;;;;;;;22.80;10.90;;;;;;;0.56;100.00;99953.95;106580;1281;139188;-73
2023/01/23 04:39:54;;;;;;;17.30;10.00;;;;;;;0.57;100.00;99955.13;106576;1281;140064;-73
2023/01/23 04:42:22;;;;;;;16.10;9.70;;;;;;;0.58;100.00;99955.53;106554;1280;139057;-73
2023/01/23 04:44:57;;;;;;;20.00;10.30;;;;;;;0.59;100.00;99960.13;107134;1264;23912;-73
2023/01/23 04:47:36;;;;;;;18.50;9.90;;;;;;;0.59;100.00;99959.02;107066;1281;22569;-73
2023/01/23 04:50:06;;;;;;;19.30;9.70;;;;;;;0.60;100.00;99957.84;106948;1281;138128;-73
2023/01/23 04:52:34;;;;;;;20.40;11.00;;;;;;;0.62;100.00;99961.81;106689;1266;138891;-73
2023/01/23 04:55:01;;;;;;;19.30;11.30;;;;;;;0.61;100.00;99958.63;106657;1259;138704;-73
2023/01/23 04:57:28;;;;;;;19.30;11.20;;;;;;;0.63;100.00;99960.98;106573;1281;139138;-73
2023/01/23 04:59:59;;;;;;;19.90;11.40;;;;;;;0.62;100.00;99964.42;106656;1265;140747;-73
2023/01/23 05:02:26;;;;;;;21.00;12.50;;;;;;;0.63;100.00;99966.55;106747;1281;22984;-73
2023/01/23 05:04:53;;;;;;;20.20;10.90;;;;;;;0.63;100.00;99965.05;106615;1265;139123;-73
2023/01/23 05:07:21;;;;;;;20.10;10.60;;;;;;;0.63;100.00;99963.51;106678;1281;139002;-73
2023/01/23 05:10:02;;;;;;;25.30;11.70;;;;;;;0.62;100.00;99963.76;106851;1281;139363;-72
2023/01/23 05:12:29;;;;;;;19.60;11.30;;;;;;;0.62;100.00;99968.75;106627;1281;138722;-73
2023/01/23 05:14:56;;;;;;;22.40;11.10;;;;;;;0.62;100.00;99972.67;106729;1280;25296;-73
2023/01/23 05:17:23;;;;;;;23.80;11.90;;;;;;;0.62;100.00;99966.08;106632;1259;138859;-73
2023/01/23 05:19:53;;;;;;;23.40;12.20;;;;;;;0.61;100.00;99958.98;107827;1281;139091;-73
2023/01/23 05:22:20;;;;;;;23.40;11.80;;;;;;;0.60;100.00;99952.10;106570;1282;138972;-73
2023/01/23 05:24:47;;;;;;;25.90;12.10;;;;;;;0.60;100.00;99954.08;106640;1262;138586;-73
2023/01/23 05:27:15;;;;;;;23.10;11.50;;;;;;;0.60;100.00;99956.42;106651;1281;139061;-73
2023/01/23 05:29:43;;;;;;;24.10;11.70;;;;;;;0.60;100.00;99958.23;106607;1282;139237;-73
2023/01/23 05:32:17;;;;;;;19.30;10.60;;;;;;;0.58;100.00;99957.52;106742;1279;22975;-73
2023/01/23 05:34:44;;;;;;;23.10;11.10;;;;;;;0.58;100.00;99961.48;106631;1262;138665;-73
2023/01/23 05:37:30;;;;;;;22.80;11.50;;;;;;;0.56;100.00;99963.16;106610;1266;138546;-73
2023/01/23 05:40:00;;;;;;;23.20;11.50;;;;;;;0.57;100.00;99966.70;106596;1282;138495;-73
2023/01/23 05:42:42;;;;;;;20.90;11.20;;;;;;;0.58;100.00;99971.83;106588;1282;138587;-73
2023/01/23 05:45:35;;;;;;;22.10;11.40;;;;;;;0.59;100.00;99975.70;107104;1263;138739;-73
2023/01/23 05:48:06;;;;;;;21.90;10.80;;;;;;;0.59;100.00;99984.79;106781;1281;139614;-73
2023/01/23 05:50:32;;;;;;;21.20;10.60;;;;;;;0.58;100.00;99988.26;106695;1281;22540;-73
2023/01/23 05:52:59;;;;;;;20.90;11.20;;;;;;;0.59;100.00;99991.09;106532;1282;138734;-73
2023/01/23 05:55:26;;;;;;;21.90;11.70;;;;;;;0.60;100.00;99996.09;106554;1265;138853;-72
2023/01/23 05:57:55;;;;;;;24.30;11.70;;;;;;;0.60;100.00;99992.73;106663;1283;138992;-73
2023/01/23 06:00:42;;;;;;;21.80;11.00;;;;;;;0.58;100.00;100000.91;106646;1259;138520;-73
2023/01/23 06:03:28;;;;;;;23.20;11.30;;;;;;;0.57;100.00;100004.80;106628;1259;139489;-73
2023/01/23 06:06:04;;;;;;;24.00;12.10;;;;;;;0.56;100.00;100014.46;107794;1261;138892;-73
2023/01/23 06:08:32;;;;;;;25.30;12.90;;;;;;;0.55;100.00;100015.63;106714;1258;22539;-72
2023/01/23 06:10:59;;;;;;;30.10;13.10;;;;;;;0.56;100.00;100019.65;106526;1282;138831;-72
2023/01/23 06:13:26;;;;;;;23.70;13.00;;;;;;;0.57;100.00;100023.90;106538;1282;138951;-73
2023/01/23 06:15:54;;;;;;;26.90;12.60;;;;;;;0.59;100.00;100023.58;106624;1262;138877;-72
2023/01/23 06:18:21;;;;;;;26.00;13.10;;;;;;;0.59;100.00;100026.24;107044;1266;139256;-73
2023/01/23 06:20:48;;;;;;;25.60;13.00;;;;;;;0.60;100.00;100031.14;106739;1282;22805;-72
2023/01/23 06:23:15;;;;;;;25.80;13.10;;;;;;;0.62;100.00;100042.42;106478;1282;139284;-72
2023/01/23 06:25:42;;;;;;;23.00;12.70;;;;;;;0.62;100.00;100046.16;106653;1262;138686;-72
2023/01/23 06:28:10;;;;;;;26.50;12.50;;;;;;;0.63;100.00;100047.14;106717;1278;138977;-73
2023/01/23 06:30:37;;;;;;;28.50;13.30;;;;;;;0.63;100.00;100044.23;106602;1281;138715;-73
2023/01/23 06:33:07;;;;;;;24.40;11.80;;;;;;;0.64;100.00;100041.15;106683;1282;22536;-72
2023/01/23 06:35:37;;;;;;;25.70;12.80;;;;;;;0.65;100.00;100047.83;106713;1264;23884;-73
2023/01/23 06:38:05;;;;;;;26.80;14.00;;;;;;;0.65;100.00;100046.73;106910;1275;138515;-72
2023/01/23 06:40:32;;;;;;;31.50;14.60;;;;;;;0.66;100.00;100048.98;106586;1275;139202;-73
2023/01/23 06:43:07;;;;;;;23.30;13.10;;;;;;;0.66;100.00;100047.87;106585;1279;138879;-73
2023/01/23 06:45:35;;;;;;;24.00;11.90;;;;;;;0.65;100.00;100047.63;106598;1282;139952;-73
2023/01/23 06:48:02;;;;;;;29.10;13.30;;;;;;;0.64;100.00;100046.83;106772;1275;139651;-73
2023/01/23 06:50:29;;;;;;;26.70;13.00;;;;;;;0.64;100.00;100047.94;106702;1275;22536;-73
2023/01/23 06:52:55;;;;;;;23.60;12.30;;;;;;;0.65;100.00;100049.94;106542;1279;139155;-73
2023/01/23 06:55:22;;;;;;;28.30;12.60;;;;;;;0.67;100.00;100046.73;106566;1276;139736;-73
2023/01/23 06:57:50;;;;;;;27.30;13.50;;;;;;;0.68;100.00;100047.19;106819;1263;138926;-72
2023/01/23 07:00:18;;;;;;;24.70;12.40;;;;;;;0.69;100.00;100044.21;106582;1282;139756;-73
2023/01/23 07:02:45;;;;;;;25.30;13.60;;;;;;;0.71;100.00;100050.98;106999;1275;22544;-72
2023/01/23 07:05:13;;;;;;;24.90;13.00;;;;;;;0.72;100.00;100054.67;106822;1275;139820;-72
2023/01/23 07:07:45;;;;;;;29.40;14.20;;;;;;;0.73;100.00;100056.23;106628;1264;140253;-72
2023/01/23 07:10:12;;;;;;;25.80;14.10;;;;;;;0.72;100.00;100058.42;106686;1281;138816;-72
2023/01/23 07:12:38;;;;;;;27.80;13.40;;;;;;;0.74;100.00;100059.45;106623;1271;139387;-73
2023/01/23 07:15:08;;;;;;;30.60;14.30;;;;;;;0.77;100.00;100062.08;107116;1279;22951;-73
2023/01/23 07:17:38;;;;;;;30.40;14.20;;;;;;;0.81;100.00;100061.42;107619;1268;22997;-73
2023/01/23 07:20:06;;;;;;;28.30;13.00;;;;;;;0.83;100.00;100069.00;106677;1282;138558;-73
2023/01/23 07:22:35;;;;;;;26.60;12.90;;;;;;;0.84;100.00;100069.11;107408;1274;139217;-77
2023/01/23 07:25:02;;;;;;;32.90;14.40;;;;;;;0.86;100.00;100065.70;106684;1282;139384;-74
2023/01/23 07:27:29;;;;;;;27.90;14.50;;;;;;;0.87;100.00;100060.63;106680;1262;140591;-73
2023/01/23 07:29:56;;;;;;;35.90;14.70;;;;;;;0.89;100.00;100058.65;106662;1275;139830;-73
2023/01/23 07:32:23;;;;;;;30.40;14.40;;;;;;;0.90;100.00;100062.61;106965;1282;22265;-73
2023/01/23 07:34:51;;;;;;;30.60;14.70;;;;;;;0.93;100.00;100061.46;107316;1275;138552;-75
2023/01/23 07:37:18;;;;;;;28.90;14.40;;;;;;;0.97;100.00;100064.20;106632;1262;138678;-72
2023/01/23 07:39:45;;;;;;;27.90;13.30;;;;;;;0.98;100.00;100066.63;106665;1275;141344;-73
2023/01/23 07:42:12;;;;;;;31.40;15.00;;;;;;;0.99;100.00;100069.55;107370;1276;138985;-73
2023/01/23 07:44:41;;;;;;;28.20;13.90;;;;;;;1.01;100.00;100074.21;107582;1282;22650;-73
2023/01/23 07:47:08;;;;;;;34.40;15.00;;;;;;;1.02;100.00;100075.82;106605;1262;139272;-73
2023/01/23 07:49:35;;;;;;;31.20;14.90;;;;;;;1.06;100.00;100083.55;107362;1266;139052;-74
2023/01/23 07:52:03;;;;;;;35.90;16.60;;;;;;;1.10;100.00;100089.45;107682;1276;139369;-73
2023/01/23 07:54:31;;;;;;;33.80;15.90;;;;;;;1.15;100.00;100095.73;109636;1278;139730;-73
2023/01/23 07:56:58;;;;;;;37.30;16.90;;;;;;;1.20;100.00;100096.88;106762;1260;22525;-73
2023/01/23 07:59:25;;;;;;;32.30;15.80;;;;;;;1.26;100.00;100100.09;108277;1275;140861;-73
2023/01/23 08:01:53;;;;;;;32.20;15.50;;;;;;;1.32;100.00;100103.46;106668;1275;138739;-73
2023/01/23 08:04:20;;;;;;;33.10;17.00;;;;;;;1.38;100.00;100103.50;106683;1275;138732;-73
2023/01/23 08:06:47;;;;;;;32.70;16.00;;;;;;;1.44;100.00;100103.27;106576;1259;138629;-73
2023/01/23 08:09:14;;;;;;;36.00;16.50;;;;;;;1.48;100.00;100103.77;106708;1282;23971;-73
2023/01/23 08:11:41;;;;;;;36.10;17.60;;;;;;;1.49;100.00;100109.88;106780;1275;22554;-72
2023/01/23 08:14:08;;;;;;;32.10;16.00;;;;;;;1.53;100.00;100114.59;106830;1278;25314;-72
2023/01/23 08:16:35;;;;;;;34.30;15.70;;;;;;;1.56;100.00;100116.61;106581;1276;139938;-72
2023/01/23 08:19:07;;;;;;;32.30;15.80;;;;;;;1.59;100.00;100108.80;107635;1260;138844;-73
2023/01/23 08:21:34;;;;;;;31.20;15.60;;;;;;;1.64;100.00;100106.74;107222;1282;139977;-73
2023/01/23 08:24:03;;;;;;;30.60;14.70;;;;;;;1.68;100.00;100102.92;106898;1282;140183;-72
2023/01/23 08:26:30;;;;;;;38.00;15.50;;;;;;;1.74;100.00;100105.75;106660;1282;25533;-72
2023/01/23 08:28:57;;;;;;;29.30;13.90;;;;;;;1.79;100.00;100106.69;106554;1262;138534;-72
2023/01/23 08:31:25;;;;;;;27.90;15.10;;;;;;;1.80;100.00;100104.28;106579;1278;138725;-72
2023/01/23 08:33:52;;;;;;;25.00;13.00;;;;;;;1.80;100.00;100106.77;106768;1276;140227;-72
2023/01/23 08:36:19;;;;;;;25.20;14.00;;;;;;;1.81;100.00;100104.94;106513;1275;140465;-72
2023/01/23 08:38:47;;;;;;;21.20;12.20;;;;;;;1.83;100.00;100107.40;106560;1265;23915;-73
2023/01/23 08:41:15;;;;;;;21.20;12.50;;;;;;;1.84;99.98;100113.05;106524;1282;138610;-72
2023/01/23 08:43:43;;;;;;;20.80;11.30;;;;;;;1.83;99.90;100116.91;108156;1271;138639;-73
2023/01/23 08:46:10;;;;;;;23.10;13.00;;;;;;;1.82;99.61;100121.69;108378;1275;138574;-73
2023/01/23 08:48:37;;;;;;;22.70;12.30;;;;;;;1.80;99.63;100124.36;107337;1263;138615;-72
2023/01/23 08:51:08;;;;;;;25.70;14.20;;;;;;;1.80;99.71;100127.61;107336;1274;22677;-73
2023/01/23 08:53:35;;;;;;;23.60;12.60;;;;;;;1.82;99.88;100125.77;108733;1275;139081;-73
2023/01/23 08:56:05;;;;;;;21.90;12.20;;;;;;;1.84;99.54;100128.48;108771;1275;139134;-73
2023/01/23 08:58:33;;;;;;;20.60;11.30;;;;;;;1.84;99.31;100129.82;108040;1265;139055;-73
2023/01/23 09:01:01;;;;;;;19.20;10.80;;;;;;;1.85;99.09;100135.10;107183;1275;138532;-73
2023/01/23 09:03:28;;;;;;;18.80;11.40;;;;;;;1.84;99.07;100133.08;106622;1272;139372;-73
2023/01/23 09:05:59;;;;;;;17.30;10.40;;;;;;;1.86;99.06;100134.68;106891;1281;138781;-73
2023/01/23 09:08:26;;;;;;;19.30;10.30;;;;;;;1.89;99.29;100130.80;106845;1262;24232;-73
2023/01/23 09:10:59;;;;;;;18.70;9.70;;;;;;;1.92;99.28;100126.04;107074;1282;139155;-73
2023/01/23 09:13:26;;;;;;;16.20;10.20;;;;;;;1.91;98.72;100129.88;107152;1282;138568;-73
2023/01/23 09:15:53;;;;;;;19.60;10.70;;;;;;;1.91;98.86;100130.65;106722;1275;139758;-73
2023/01/23 09:18:21;;;;;;;20.80;11.30;;;;;;;1.91;98.89;100129.69;106920;1259;139178;-73
2023/01/23 09:20:48;;;;;;;17.50;9.90;;;;;;;1.96;99.22;100125.84;106736;1275;22538;-73
2023/01/23 09:23:15;;;;;;;18.60;10.70;;;;;;;2.00;99.11;100125.31;107913;1277;138378;-73
2023/01/23 09:25:42;;;;;;;20.10;11.60;;;;;;;2.04;99.23;100126.46;106991;1276;138993;-73
2023/01/23 09:28:09;;;;;;;18.20;11.20;;;;;;;2.08;98.99;100125.56;107273;1270;138996;-73
2023/01/23 09:30:35;;;;;;;19.40;11.30;;;;;;;2.11;99.14;100120.13;107205;1262;138580;-74
2023/01/23 09:33:03;;;;;;;20.90;11.30;;;;;;;2.16;99.30;100115.64;106701;1280;23937;-73
2023/01/23 09:35:31;;;;;;;19.80;11.50;;;;;;;2.21;99.11;100116.30;107486;1277;138353;-73
2023/01/23 09:38:01;;;;;;;20.20;11.60;;;;;;;2.23;98.77;100108.74;108239;1273;138973;-74
2023/01/23 09:40:32;;;;;;;19.10;11.20;;;;;;;2.25;98.40;100106.21;107880;1262;138564;-73
2023/01/23 09:43:14;;;;;;;17.70;9.90;;;;;;;2.23;97.70;100102.40;108105;1274;139838;-74
2023/01/23 09:45:57;;;;;;;18.80;11.70;;;;;;;2.19;97.33;100089.41;106809;1281;138513;-73
2023/01/23 09:48:38;;;;;;;22.70;13.50;;;;;;;2.13;97.14;100088.40;106557;1269;138768;-73
2023/01/23 09:51:30;;;;;;;22.10;12.90;;;;;;;2.04;97.04;100082.45;106653;1267;22533;-72
2023/01/23 09:54:06;;;;;;;21.00;12.10;;;;;;;1.93;96.87;100083.36;106583;1278;138651;-73
2023/01/23 09:56:43;;;;;;;25.00;13.90;;;;;;;1.87;97.31;100085.86;106830;1269;22549;-74
2023/01/23 09:59:23;;;;;;;20.60;13.00;;;;;;;1.85;97.57;100083.20;106718;1257;138665;-75
2023/01/23 10:01:51;;;;;;;22.40;12.00;;;;;;;1.82;97.85;100081.84;106660;1280;138867;-74
2023/01/23 10:04:19;;;;;;;21.10;11.10;;;;;;;1.81;97.90;100084.33;106679;1280;138657;-74
2023/01/23 10:06:57;;;;;;;22.40;13.70;;;;;;;1.81;98.17;100084.52;106505;1280;139090;-74
2023/01/23 10:09:24;;;;;;;20.50;11.20;;;;;;;1.82;98.40;100085.27;106929;1260;139306;-77
2023/01/23 10:12:04;;;;;;;19.90;12.40;;;;;;;1.84;98.57;100091.91;107973;1273;139589;-76
2023/01/23 10:14:46;;;;;;;22.10;11.70;;;;;;;1.88;98.80;100101.52;107803;1276;22615;-72
2023/01/23 10:17:17;;;;;;;22.00;11.80;;;;;;;1.93;98.74;100102.88;108132;1271;140945;-73
2023/01/23 10:19:47;;;;;;;22.60;13.20;;;;;;;1.97;98.92;100100.73;107612;1262;139201;-73
2023/01/23 10:22:36;;;;;;;21.00;12.30;;;;;;;2.01;98.91;100095.05;107265;1275;138519;-73
2023/01/23 10:25:20;;;;;;;20.10;11.70;;;;;;;2.05;98.77;100090.73;107028;1281;138641;-72
2023/01/23 10:27:49;;;;;;;20.50;11.00;;;;;;;2.08;98.39;100095.50;109588;1274;140884;-73
2023/01/23 10:30:16;;;;;;;20.20;11.80;;;;;;;2.12;98.14;100102.52;106707;1263;139950;-73
2023/01/23 10:32:55;;;;;;;22.20;12.50;;;;;;;2.12;98.23;100100.29;107179;1275;22592;-75
2023/01/23 10:35:37;;;;;;;23.70;13.90;;;;;;;2.17;98.67;100096.91;107448;1275;139150;-73
2023/01/23 10:38:24;;;;;;;25.30;13.80;;;;;;;2.22;98.41;100095.73;108143;1278;138317;-73
2023/01/23 10:43:39;;;;;;;23.60;12.30;;;;;;;2.26;98.27;100094.39;107970;1275;139000;-73
2023/01/23 10:46:12;;;;;;;24.60;14.80;;;;;;;2.26;97.93;100093.55;108214;1277;138975;-73
2023/01/23 10:48:42;;;;;;;22.20;13.10;;;;;;;2.23;97.44;100093.11;107568;1274;139411;-73
2023/01/23 10:51:36;;;;;;;24.70;14.10;;;;;;;2.21;97.66;100092.66;109240;1262;22541;-74
2023/01/23 10:54:19;;;;;;;21.50;12.70;;;;;;;2.21;98.11;100088.33;107228;1272;138541;-73
2023/01/23 10:56:48;;;;;;;21.70;12.60;;;;;;;2.20;97.91;100088.95;107371;1272;25333;-74
2023/01/23 10:59:22;;;;;;;21.70;12.70;;;;;;;2.19;97.60;100089.71;107910;1266;138882;-74
2023/01/23 11:02:37;;;;;;;30.90;14.20;;;;;;;2.20;97.57;100086.97;108424;1261;139176;-74
2023/01/23 11:05:33;;;;;;;22.10;12.10;;;;;;;2.21;97.58;100085.10;107985;1283;140347;-73
2023/01/23 11:08:00;;;;;;;25.50;12.90;;;;;;;2.23;97.47;100078.77;108426;1280;138951;-74
2023/01/23 11:10:27;;;;;;;22.50;13.10;;;;;;;2.28;97.77;100077.07;107523;1267;139808;-74
2023/01/23 11:12:54;;;;;;;22.30;12.80;;;;;;;2.32;97.68;100072.19;107131;1274;138632;-74
2023/01/23 11:15:24;;;;;;;22.90;12.90;;;;;;;2.36;97.62;100072.49;107213;1287;24339;-73
2023/01/23 11:17:54;;;;;;;22.70;12.90;;;;;;;2.39;97.39;100072.56;106607;1275;139044;-73
2023/01/23 11:20:38;;;;;;;21.00;12.10;;;;;;;2.40;97.31;100067.02;107585;1282;22886;-73
2023/01/23 11:23:15;;;;;;;24.10;13.60;;;;;;;2.41;97.38;100062.88;107715;1271;138973;-72